sensor_id;sensor_type;location;lat;lon;timestamp;pressure;altitude;pressure_sealevel;temperature;humidity
49645;BME280;36494;50.730;-1.932;2023-02-13T00:00:49;102920.96;;;7.41;100.00
49645;BME280;36494;50.730;-1.932;2023-02-13T00:03:15;102920.33;;;7.44;100.00
49645;BME280;36494;50.730;-1.932;2023-02-13T00:05:40;102919.46;;;7.41;100.00
49645;BME280;36494;50.730;-1.932;2023-02-13T00:08:06;102918.66;;;7.39;100.00
49645;BME280;36494;50.730;-1.932;2023-02-13T00:10:31;102920.74;;;7.29;100.00
49645;BME280;36494;50.730;-1.932;2023-02-13T00:12:56;102922.68;;;7.17;100.00
49645;BME280;36494;50.730;-1.932;2023-02-13T00:15:22;102920.50;;;7.29;100.00
49645;BME280;36494;50.730;-1.932;2023-02-13T00:17:47;102919.77;;;7.30;100.00
49645;BME280;36494;50.730;-1.932;2023-02-13T00:20:13;102919.05;;;7.23;100.00
49645;BME280;36494;50.730;-1.932;2023-02-13T00:22:38;102917.88;;;7.26;100.00
49645;BME280;36494;50.730;-1.932;2023-02-13T00:25:03;102920.31;;;7.32;100.00
49645;BME280;36494;50.730;-1.932;2023-02-13T00:27:29;102919.30;;;7.32;100.00
49645;BME280;36494;50.730;-1.932;2023-02-13T00:29:54;102920.20;;;7.32;100.00
49645;BME280;36494;50.730;-1.932;2023-02-13T00:32:20;102921.74;;;7.11;100.00
49645;BME280;36494;50.730;-1.932;2023-02-13T00:34:46;102917.89;;;7.16;100.00
49645;BME280;36494;50.730;-1.932;2023-02-13T00:37:11;102914.90;;;7.23;100.00
49645;BME280;36494;50.730;-1.932;2023-02-13T00:39:36;102912.92;;;7.22;100.00
49645;BME280;36494;50.730;-1.932;2023-02-13T00:42:01;102907.26;;;7.12;100.00
49645;BME280;36494;50.730;-1.932;2023-02-13T00:44:26;102902.10;;;7.20;100.00
49645;BME280;36494;50.730;-1.932;2023-02-13T00:46:52;102901.94;;;7.18;100.00
49645;BME280;36494;50.730;-1.932;2023-02-13T00:49:17;102900.63;;;7.18;100.00
49645;BME280;36494;50.730;-1.932;2023-02-13T00:51:43;102898.83;;;7.11;100.00
49645;BME280;36494;50.730;-1.932;2023-02-13T00:54:09;102900.75;;;7.06;100.00
49645;BME280;36494;50.730;-1.932;2023-02-13T00:56:34;102901.00;;;7.09;100.00
49645;BME280;36494;50.730;-1.932;2023-02-13T00:59:00;102907.04;;;7.15;100.00
49645;BME280;36494;50.730;-1.932;2023-02-13T01:01:26;102905.40;;;7.07;100.00
49645;BME280;36494;50.730;-1.932;2023-02-13T01:03:51;102907.43;;;7.03;100.00
49645;BME280;36494;50.730;-1.932;2023-02-13T01:06:16;102905.75;;;7.18;100.00
49645;BME280;36494;50.730;-1.932;2023-02-13T01:08:42;102900.05;;;6.97;100.00
49645;BME280;36494;50.730;-1.932;2023-02-13T01:11:08;102901.87;;;7.03;100.00
49645;BME280;36494;50.730;-1.932;2023-02-13T01:13:33;102902.90;;;7.17;100.00
49645;BME280;36494;50.730;-1.932;2023-02-13T01:15:58;102903.91;;;7.15;100.00
49645;BME280;36494;50.730;-1.932;2023-02-13T01:18:23;102901.95;;;7.17;100.00
49645;BME280;36494;50.730;-1.932;2023-02-13T01:20:55;102898.49;;;7.08;100.00
49645;BME280;36494;50.730;-1.932;2023-02-13T01:23:14;102903.25;;;7.13;100.00
49645;BME280;36494;50.730;-1.932;2023-02-13T01:25:40;102900.01;;;7.18;100.00
49645;BME280;36494;50.730;-1.932;2023-02-13T01:28:05;102894.16;;;7.16;100.00
49645;BME280;36494;50.730;-1.932;2023-02-13T01:30:30;102891.96;;;7.14;100.00
49645;BME280;36494;50.730;-1.932;2023-02-13T01:32:55;102895.03;;;7.24;100.00
49645;BME280;36494;50.730;-1.932;2023-02-13T01:35:21;102893.55;;;7.21;100.00
49645;BME280;36494;50.730;-1.932;2023-02-13T01:37:46;102891.54;;;7.28;100.00
49645;BME280;36494;50.730;-1.932;2023-02-13T01:40:13;102892.52;;;7.29;100.00
49645;BME280;36494;50.730;-1.932;2023-02-13T01:42:38;102893.13;;;7.22;100.00
49645;BME280;36494;50.730;-1.932;2023-02-13T01:45:04;102896.36;;;7.19;100.00
49645;BME280;36494;50.730;-1.932;2023-02-13T01:47:36;102897.32;;;7.27;100.00
49645;BME280;36494;50.730;-1.932;2023-02-13T01:50:03;102897.66;;;7.23;100.00
49645;BME280;36494;50.730;-1.932;2023-02-13T01:52:20;102893.79;;;7.20;100.00
49645;BME280;36494;50.730;-1.932;2023-02-13T01:54:45;102889.40;;;7.24;100.00
49645;BME280;36494;50.730;-1.932;2023-02-13T01:57:13;102883.70;;;7.23;100.00
49645;BME280;36494;50.730;-1.932;2023-02-13T01:59:40;102881.26;;;7.22;100.00
49645;BME280;36494;50.730;-1.932;2023-02-13T02:02:01;102875.28;;;7.25;100.00
49645;BME280;36494;50.730;-1.932;2023-02-13T02:04:29;102874.86;;;7.19;100.00
49645;BME280;36494;50.730;-1.932;2023-02-13T02:06:57;102872.22;;;7.21;100.00
49645;BME280;36494;50.730;-1.932;2023-02-13T02:09:21;102871.48;;;7.25;100.00
49645;BME280;36494;50.730;-1.932;2023-02-13T02:11:50;102866.99;;;7.15;100.00
49645;BME280;36494;50.730;-1.932;2023-02-13T02:14:08;102863.06;;;7.11;100.00
49645;BME280;36494;50.730;-1.932;2023-02-13T02:16:34;102860.11;;;7.09;100.00
49645;BME280;36494;50.730;-1.932;2023-02-13T02:19:01;102856.37;;;7.15;100.00
49645;BME280;36494;50.730;-1.932;2023-02-13T02:21:40;102853.66;;;7.06;100.00
49645;BME280;36494;50.730;-1.932;2023-02-13T02:26:31;102852.70;;;7.14;100.00
49645;BME280;36494;50.730;-1.932;2023-02-13T02:28:59;102853.96;;;7.16;100.00
49645;BME280;36494;50.730;-1.932;2023-02-13T02:31:24;102854.72;;;7.16;100.00
49645;BME280;36494;50.730;-1.932;2023-02-13T02:33:41;102856.12;;;7.16;100.00
49645;BME280;36494;50.730;-1.932;2023-02-13T02:36:09;102855.48;;;7.08;100.00
49645;BME280;36494;50.730;-1.932;2023-02-13T02:38:36;102851.49;;;7.11;100.00
49645;BME280;36494;50.730;-1.932;2023-02-13T02:40:57;102850.33;;;7.16;100.00
49645;BME280;36494;50.730;-1.932;2023-02-13T02:43:23;102846.58;;;7.12;100.00
49645;BME280;36494;50.730;-1.932;2023-02-13T02:45:45;102842.17;;;7.13;100.00
49645;BME280;36494;50.730;-1.932;2023-02-13T02:48:06;102839.21;;;7.01;100.00
49645;BME280;36494;50.730;-1.932;2023-02-13T02:50:34;102833.93;;;7.10;100.00
49645;BME280;36494;50.730;-1.932;2023-02-13T02:53:05;102834.40;;;7.14;100.00
49645;BME280;36494;50.730;-1.932;2023-02-13T02:55:30;102838.08;;;7.15;100.00
49645;BME280;36494;50.730;-1.932;2023-02-13T02:57:49;102842.57;;;7.12;100.00
49645;BME280;36494;50.730;-1.932;2023-02-13T03:00:12;102846.81;;;7.05;100.00
49645;BME280;36494;50.730;-1.932;2023-02-13T03:02:37;102846.78;;;7.17;100.00
49645;BME280;36494;50.730;-1.932;2023-02-13T03:05:03;102845.38;;;7.19;100.00
49645;BME280;36494;50.730;-1.932;2023-02-13T03:07:29;102843.21;;;7.18;100.00
49645;BME280;36494;50.730;-1.932;2023-02-13T03:09:56;102841.50;;;7.13;100.00
49645;BME280;36494;50.730;-1.932;2023-02-13T03:12:22;102843.41;;;7.08;100.00
49645;BME280;36494;50.730;-1.932;2023-02-13T03:14:45;102840.77;;;7.01;100.00
49645;BME280;36494;50.730;-1.932;2023-02-13T03:17:13;102837.14;;;7.03;100.00
49645;BME280;36494;50.730;-1.932;2023-02-13T03:19:45;102836.47;;;7.05;100.00
49645;BME280;36494;50.730;-1.932;2023-02-13T03:22:07;102839.21;;;7.06;100.00
49645;BME280;36494;50.730;-1.932;2023-02-13T03:24:34;102833.79;;;6.98;100.00
49645;BME280;36494;50.730;-1.932;2023-02-13T03:26:56;102839.96;;;7.09;100.00
49645;BME280;36494;50.730;-1.932;2023-02-13T03:29:24;102844.03;;;7.14;100.00
49645;BME280;36494;50.730;-1.932;2023-02-13T03:31:47;102845.71;;;7.10;100.00
49645;BME280;36494;50.730;-1.932;2023-02-13T03:34:11;102842.01;;;7.07;100.00
49645;BME280;36494;50.730;-1.932;2023-02-13T03:36:43;102840.00;;;7.06;100.00
49645;BME280;36494;50.730;-1.932;2023-02-13T03:39:04;102834.43;;;7.11;100.00
49645;BME280;36494;50.730;-1.932;2023-02-13T03:41:29;102836.18;;;7.14;100.00
49645;BME280;36494;50.730;-1.932;2023-02-13T03:43:57;102828.41;;;7.17;100.00
49645;BME280;36494;50.730;-1.932;2023-02-13T03:46:17;102826.63;;;7.11;100.00
49645;BME280;36494;50.730;-1.932;2023-02-13T03:48:42;102829.82;;;7.18;100.00
49645;BME280;36494;50.730;-1.932;2023-02-13T03:51:08;102838.95;;;7.08;100.00
49645;BME280;36494;50.730;-1.932;2023-02-13T03:53:33;102836.35;;;7.13;100.00
49645;BME280;36494;50.730;-1.932;2023-02-13T03:55:57;102836.12;;;7.11;100.00
49645;BME280;36494;50.730;-1.932;2023-02-13T03:58:26;102832.51;;;7.17;100.00
49645;BME280;36494;50.730;-1.932;2023-02-13T04:00:51;102831.78;;;7.09;100.00
49645;BME280;36494;50.730;-1.932;2023-02-13T04:03:18;102832.06;;;7.17;100.00
49645;BME280;36494;50.730;-1.932;2023-02-13T04:05:42;102837.26;;;7.19;100.00
49645;BME280;36494;50.730;-1.932;2023-02-13T04:08:04;102839.07;;;7.24;100.00
49645;BME280;36494;50.730;-1.932;2023-02-13T04:10:32;102840.65;;;7.24;100.00
49645;BME280;36494;50.730;-1.932;2023-02-13T04:13:01;102842.57;;;7.20;100.00
49645;BME280;36494;50.730;-1.932;2023-02-13T04:15:26;102833.59;;;7.24;100.00
49645;BME280;36494;50.730;-1.932;2023-02-13T04:17:50;102823.15;;;7.22;100.00
49645;BME280;36494;50.730;-1.932;2023-02-13T04:20:12;102822.04;;;7.19;100.00
49645;BME280;36494;50.730;-1.932;2023-02-13T04:22:41;102823.76;;;7.17;100.00
49645;BME280;36494;50.730;-1.932;2023-02-13T04:25:03;102821.53;;;7.18;100.00
49645;BME280;36494;50.730;-1.932;2023-02-13T04:27:28;102820.20;;;7.17;100.00
49645;BME280;36494;50.730;-1.932;2023-02-13T04:29:53;102823.78;;;7.24;100.00
49645;BME280;36494;50.730;-1.932;2023-02-13T04:32:19;102821.78;;;7.19;100.00
49645;BME280;36494;50.730;-1.932;2023-02-13T04:34:44;102818.93;;;7.24;100.00
49645;BME280;36494;50.730;-1.932;2023-02-13T04:37:10;102821.56;;;7.30;100.00
49645;BME280;36494;50.730;-1.932;2023-02-13T04:39:35;102822.31;;;7.34;100.00
49645;BME280;36494;50.730;-1.932;2023-02-13T04:42:00;102824.42;;;7.20;100.00
49645;BME280;36494;50.730;-1.932;2023-02-13T04:44:26;102821.17;;;7.18;100.00
49645;BME280;36494;50.730;-1.932;2023-02-13T04:46:51;102819.11;;;7.27;100.00
49645;BME280;36494;50.730;-1.932;2023-02-13T04:49:17;102817.84;;;7.23;100.00
49645;BME280;36494;50.730;-1.932;2023-02-13T04:51:42;102816.38;;;7.33;100.00
49645;BME280;36494;50.730;-1.932;2023-02-13T04:54:08;102812.64;;;7.35;100.00
49645;BME280;36494;50.730;-1.932;2023-02-13T04:56:33;102805.93;;;7.28;100.00
49645;BME280;36494;50.730;-1.932;2023-02-13T04:58:58;102801.07;;;7.31;100.00
49645;BME280;36494;50.730;-1.932;2023-02-13T05:01:24;102803.72;;;7.30;100.00
49645;BME280;36494;50.730;-1.932;2023-02-13T05:03:50;102809.55;;;7.20;100.00
49645;BME280;36494;50.730;-1.932;2023-02-13T05:06:15;102812.85;;;7.24;100.00
49645;BME280;36494;50.730;-1.932;2023-02-13T05:08:41;102814.61;;;7.28;100.00
49645;BME280;36494;50.730;-1.932;2023-02-13T05:11:06;102813.65;;;7.26;100.00
49645;BME280;36494;50.730;-1.932;2023-02-13T05:13:32;102817.45;;;7.25;100.00
49645;BME280;36494;50.730;-1.932;2023-02-13T05:15:57;102814.50;;;7.25;100.00
49645;BME280;36494;50.730;-1.932;2023-02-13T05:18:22;102809.23;;;7.28;100.00
49645;BME280;36494;50.730;-1.932;2023-02-13T05:20:48;102807.48;;;7.16;100.00
49645;BME280;36494;50.730;-1.932;2023-02-13T05:23:13;102809.93;;;7.18;100.00
49645;BME280;36494;50.730;-1.932;2023-02-13T05:25:40;102806.54;;;7.23;100.00
49645;BME280;36494;50.730;-1.932;2023-02-13T05:28:04;102808.97;;;7.22;100.00
49645;BME280;36494;50.730;-1.932;2023-02-13T05:30:30;102808.37;;;7.23;100.00
49645;BME280;36494;50.730;-1.932;2023-02-13T05:32:54;102807.70;;;7.26;100.00
49645;BME280;36494;50.730;-1.932;2023-02-13T05:35:21;102810.60;;;7.24;100.00
49645;BME280;36494;50.730;-1.932;2023-02-13T05:37:45;102816.47;;;7.14;100.00
49645;BME280;36494;50.730;-1.932;2023-02-13T05:40:12;102816.51;;;7.22;100.00
49645;BME280;36494;50.730;-1.932;2023-02-13T05:42:36;102818.69;;;7.26;100.00
49645;BME280;36494;50.730;-1.932;2023-02-13T05:45:01;102817.70;;;7.26;100.00
49645;BME280;36494;50.730;-1.932;2023-02-13T05:47:27;102822.98;;;7.33;100.00
49645;BME280;36494;50.730;-1.932;2023-02-13T05:49:52;102823.89;;;7.37;100.00
49645;BME280;36494;50.730;-1.932;2023-02-13T05:52:17;102820.01;;;7.38;100.00
49645;BME280;36494;50.730;-1.932;2023-02-13T05:54:43;102817.13;;;7.36;100.00
49645;BME280;36494;50.730;-1.932;2023-02-13T05:57:08;102818.46;;;7.38;100.00
49645;BME280;36494;50.730;-1.932;2023-02-13T05:59:34;102816.86;;;7.38;100.00
49645;BME280;36494;50.730;-1.932;2023-02-13T06:01:59;102812.81;;;7.37;100.00
49645;BME280;36494;50.730;-1.932;2023-02-13T06:04:25;102812.51;;;7.37;100.00
49645;BME280;36494;50.730;-1.932;2023-02-13T06:06:50;102813.60;;;7.39;100.00
49645;BME280;36494;50.730;-1.932;2023-02-13T06:09:15;102810.43;;;7.37;100.00
49645;BME280;36494;50.730;-1.932;2023-02-13T06:11:41;102802.29;;;7.34;100.00
49645;BME280;36494;50.730;-1.932;2023-02-13T06:14:07;102795.56;;;7.24;100.00
49645;BME280;36494;50.730;-1.932;2023-02-13T06:16:32;102792.43;;;7.28;100.00
49645;BME280;36494;50.730;-1.932;2023-02-13T06:18:57;102791.86;;;7.30;100.00
49645;BME280;36494;50.730;-1.932;2023-02-13T06:21:23;102789.15;;;7.25;100.00
49645;BME280;36494;50.730;-1.932;2023-02-13T06:23:48;102786.63;;;7.18;100.00
49645;BME280;36494;50.730;-1.932;2023-02-13T06:26:14;102781.29;;;7.17;100.00
49645;BME280;36494;50.730;-1.932;2023-02-13T06:28:40;102783.48;;;7.18;100.00
49645;BME280;36494;50.730;-1.932;2023-02-13T06:31:05;102786.65;;;7.12;100.00
49645;BME280;36494;50.730;-1.932;2023-02-13T06:33:31;102794.34;;;7.13;100.00
49645;BME280;36494;50.730;-1.932;2023-02-13T06:35:57;102799.37;;;7.14;100.00
49645;BME280;36494;50.730;-1.932;2023-02-13T06:38:22;102798.42;;;7.13;100.00
49645;BME280;36494;50.730;-1.932;2023-02-13T06:40:48;102795.56;;;7.12;100.00
49645;BME280;36494;50.730;-1.932;2023-02-13T06:43:13;102790.91;;;7.13;100.00
49645;BME280;36494;50.730;-1.932;2023-02-13T06:45:38;102786.70;;;7.17;100.00
49645;BME280;36494;50.730;-1.932;2023-02-13T06:48:04;102784.01;;;7.13;100.00
49645;BME280;36494;50.730;-1.932;2023-02-13T06:50:29;102782.18;;;7.12;100.00
49645;BME280;36494;50.730;-1.932;2023-02-13T06:52:55;102783.54;;;7.17;100.00
49645;BME280;36494;50.730;-1.932;2023-02-13T06:55:20;102785.02;;;7.09;100.00
49645;BME280;36494;50.730;-1.932;2023-02-13T06:57:46;102787.83;;;7.14;100.00
49645;BME280;36494;50.730;-1.932;2023-02-13T07:00:13;102782.30;;;7.17;100.00
49645;BME280;36494;50.730;-1.932;2023-02-13T07:02:37;102774.75;;;7.13;100.00
49645;BME280;36494;50.730;-1.932;2023-02-13T07:05:02;102780.24;;;7.11;100.00
49645;BME280;36494;50.730;-1.932;2023-02-13T07:07:31;102781.63;;;7.10;100.00
49645;BME280;36494;50.730;-1.932;2023-02-13T07:09:53;102784.12;;;7.13;100.00
49645;BME280;36494;50.730;-1.932;2023-02-13T07:12:19;102787.60;;;7.12;100.00
49645;BME280;36494;50.730;-1.932;2023-02-13T07:14:44;102787.82;;;7.11;100.00
49645;BME280;36494;50.730;-1.932;2023-02-13T07:17:10;102793.34;;;7.01;100.00
49645;BME280;36494;50.730;-1.932;2023-02-13T07:19:35;102790.91;;;7.05;100.00
49645;BME280;36494;50.730;-1.932;2023-02-13T07:22:01;102789.96;;;7.05;100.00
49645;BME280;36494;50.730;-1.932;2023-02-13T07:24:27;102786.53;;;7.08;100.00
49645;BME280;36494;50.730;-1.932;2023-02-13T07:26:52;102777.52;;;7.04;100.00
49645;BME280;36494;50.730;-1.932;2023-02-13T07:29:18;102778.66;;;6.95;100.00
49645;BME280;36494;50.730;-1.932;2023-02-13T07:31:43;102786.51;;;6.99;100.00
49645;BME280;36494;50.730;-1.932;2023-02-13T07:34:09;102790.28;;;6.95;100.00
49645;BME280;36494;50.730;-1.932;2023-02-13T07:36:34;102788.33;;;6.98;100.00
49645;BME280;36494;50.730;-1.932;2023-02-13T07:39:00;102789.53;;;7.00;100.00
49645;BME280;36494;50.730;-1.932;2023-02-13T07:41:25;102786.76;;;7.02;100.00
49645;BME280;36494;50.730;-1.932;2023-02-13T07:43:50;102795.27;;;7.06;100.00
49645;BME280;36494;50.730;-1.932;2023-02-13T07:46:17;102801.47;;;6.99;100.00
49645;BME280;36494;50.730;-1.932;2023-02-13T07:48:42;102801.93;;;7.02;100.00
49645;BME280;36494;50.730;-1.932;2023-02-13T07:51:08;102807.56;;;7.00;100.00
49645;BME280;36494;50.730;-1.932;2023-02-13T07:53:33;102810.41;;;6.97;100.00
49645;BME280;36494;50.730;-1.932;2023-02-13T07:55:58;102812.75;;;7.01;100.00
49645;BME280;36494;50.730;-1.932;2023-02-13T07:58:24;102806.25;;;7.06;100.00
49645;BME280;36494;50.730;-1.932;2023-02-13T08:00:49;102806.23;;;7.06;100.00
49645;BME280;36494;50.730;-1.932;2023-02-13T08:03:14;102804.95;;;7.08;100.00
49645;BME280;36494;50.730;-1.932;2023-02-13T08:05:39;102802.76;;;7.08;100.00
49645;BME280;36494;50.730;-1.932;2023-02-13T08:08:04;102796.93;;;7.00;100.00
49645;BME280;36494;50.730;-1.932;2023-02-13T08:10:30;102800.66;;;7.05;100.00
49645;BME280;36494;50.730;-1.932;2023-02-13T08:12:55;102801.04;;;7.04;100.00
49645;BME280;36494;50.730;-1.932;2023-02-13T08:15:20;102802.60;;;7.05;100.00
49645;BME280;36494;50.730;-1.932;2023-02-13T08:17:46;102808.90;;;6.97;100.00
49645;BME280;36494;50.730;-1.932;2023-02-13T08:20:11;102815.76;;;6.96;100.00
49645;BME280;36494;50.730;-1.932;2023-02-13T08:22:38;102819.90;;;6.92;100.00
49645;BME280;36494;50.730;-1.932;2023-02-13T08:25:03;102820.46;;;6.98;100.00
49645;BME280;36494;50.730;-1.932;2023-02-13T08:27:28;102821.56;;;6.96;100.00
49645;BME280;36494;50.730;-1.932;2023-02-13T08:29:53;102817.85;;;6.87;100.00
49645;BME280;36494;50.730;-1.932;2023-02-13T08:32:19;102813.23;;;6.83;100.00
49645;BME280;36494;50.730;-1.932;2023-02-13T08:34:44;102808.01;;;6.93;100.00
49645;BME280;36494;50.730;-1.932;2023-02-13T08:37:10;102807.30;;;6.96;100.00
49645;BME280;36494;50.730;-1.932;2023-02-13T08:39:35;102818.60;;;6.99;100.00
49645;BME280;36494;50.730;-1.932;2023-02-13T08:42:00;102824.53;;;7.05;100.00
49645;BME280;36494;50.730;-1.932;2023-02-13T08:44:26;102823.25;;;7.03;100.00
49645;BME280;36494;50.730;-1.932;2023-02-13T08:46:51;102820.18;;;6.88;100.00
49645;BME280;36494;50.730;-1.932;2023-02-13T08:49:17;102825.20;;;6.98;100.00
49645;BME280;36494;50.730;-1.932;2023-02-13T08:51:42;102821.66;;;6.93;100.00
49645;BME280;36494;50.730;-1.932;2023-02-13T08:54:07;102820.28;;;6.83;100.00
49645;BME280;36494;50.730;-1.932;2023-02-13T08:56:33;102821.41;;;6.80;100.00
49645;BME280;36494;50.730;-1.932;2023-02-13T08:58:59;102825.70;;;6.78;100.00
49645;BME280;36494;50.730;-1.932;2023-02-13T09:01:24;102836.17;;;6.90;100.00
49645;BME280;36494;50.730;-1.932;2023-02-13T09:03:50;102835.03;;;6.70;100.00
49645;BME280;36494;50.730;-1.932;2023-02-13T09:06:15;102838.06;;;6.77;100.00
49645;BME280;36494;50.730;-1.932;2023-02-13T09:08:40;102832.57;;;6.77;100.00
49645;BME280;36494;50.730;-1.932;2023-02-13T09:11:06;102828.50;;;6.80;100.00
49645;BME280;36494;50.730;-1.932;2023-02-13T09:13:31;102829.55;;;6.82;100.00
49645;BME280;36494;50.730;-1.932;2023-02-13T09:15:58;102827.92;;;6.92;100.00
49645;BME280;36494;50.730;-1.932;2023-02-13T09:18:22;102829.16;;;7.05;100.00
49645;BME280;36494;50.730;-1.932;2023-02-13T09:20:48;102830.36;;;7.07;100.00
49645;BME280;36494;50.730;-1.932;2023-02-13T09:23:13;102830.54;;;7.07;100.00
49645;BME280;36494;50.730;-1.932;2023-02-13T09:25:39;102830.15;;;7.16;100.00
49645;BME280;36494;50.730;-1.932;2023-02-13T09:28:04;102826.30;;;7.17;100.00
49645;BME280;36494;50.730;-1.932;2023-02-13T09:30:29;102826.08;;;7.19;100.00
49645;BME280;36494;50.730;-1.932;2023-02-13T09:32:55;102829.50;;;7.21;100.00
49645;BME280;36494;50.730;-1.932;2023-02-13T09:35:21;102828.12;;;7.22;100.00
49645;BME280;36494;50.730;-1.932;2023-02-13T09:37:46;102823.49;;;7.31;100.00
49645;BME280;36494;50.730;-1.932;2023-02-13T09:40:22;102823.28;;;7.28;100.00
49645;BME280;36494;50.730;-1.932;2023-02-13T09:42:36;102822.89;;;7.37;100.00
49645;BME280;36494;50.730;-1.932;2023-02-13T09:45:04;102822.66;;;7.20;100.00
49645;BME280;36494;50.730;-1.932;2023-02-13T09:47:29;102822.42;;;7.27;100.00
49645;BME280;36494;50.730;-1.932;2023-02-13T09:49:54;102823.56;;;7.30;100.00
49645;BME280;36494;50.730;-1.932;2023-02-13T09:52:18;102821.57;;;7.31;100.00
49645;BME280;36494;50.730;-1.932;2023-02-13T09:54:43;102819.24;;;7.28;100.00
49645;BME280;36494;50.730;-1.932;2023-02-13T09:57:16;102815.29;;;7.23;100.00
49645;BME280;36494;50.730;-1.932;2023-02-13T09:59:44;102816.50;;;7.34;100.00
49645;BME280;36494;50.730;-1.932;2023-02-13T10:02:07;102818.73;;;7.44;100.00
49645;BME280;36494;50.730;-1.932;2023-02-13T10:04:30;102818.22;;;7.44;100.00
49645;BME280;36494;50.730;-1.932;2023-02-13T10:06:57;102821.28;;;7.48;100.00
49645;BME280;36494;50.730;-1.932;2023-02-13T10:09:21;102824.23;;;7.48;100.00
49645;BME280;36494;50.730;-1.932;2023-02-13T10:12:02;102823.86;;;7.49;100.00
49645;BME280;36494;50.730;-1.932;2023-02-13T10:14:12;102816.51;;;7.54;100.00
49645;BME280;36494;50.730;-1.932;2023-02-13T10:16:35;102817.63;;;7.58;100.00
49645;BME280;36494;50.730;-1.932;2023-02-13T10:19:01;102824.48;;;7.57;100.00
49645;BME280;36494;50.730;-1.932;2023-02-13T10:21:25;102829.89;;;7.50;100.00
49645;BME280;36494;50.730;-1.932;2023-02-13T10:23:53;102826.84;;;7.45;100.00
49645;BME280;36494;50.730;-1.932;2023-02-13T10:26:18;102823.94;;;7.48;100.00
49645;BME280;36494;50.730;-1.932;2023-02-13T10:28:43;102822.52;;;7.56;100.00
49645;BME280;36494;50.730;-1.932;2023-02-13T10:31:07;102817.50;;;7.55;100.00
49645;BME280;36494;50.730;-1.932;2023-02-13T10:33:35;102814.55;;;7.62;100.00
49645;BME280;36494;50.730;-1.932;2023-02-13T10:36:00;102813.50;;;7.64;100.00
49645;BME280;36494;50.730;-1.932;2023-02-13T10:38:22;102811.31;;;7.68;100.00
49645;BME280;36494;50.730;-1.932;2023-02-13T10:40:57;102809.86;;;7.74;100.00
49645;BME280;36494;50.730;-1.932;2023-02-13T10:43:15;102810.96;;;7.84;100.00
49645;BME280;36494;50.730;-1.932;2023-02-13T10:45:50;102809.50;;;7.82;100.00
49645;BME280;36494;50.730;-1.932;2023-02-13T10:48:15;102815.41;;;7.73;100.00
49645;BME280;36494;50.730;-1.932;2023-02-13T10:50:32;102816.13;;;7.70;100.00
49645;BME280;36494;50.730;-1.932;2023-02-13T10:53:04;102819.85;;;7.79;100.00
49645;BME280;36494;50.730;-1.932;2023-02-13T10:55:30;102818.11;;;7.84;100.00
49645;BME280;36494;50.730;-1.932;2023-02-13T10:58:00;102824.17;;;7.71;100.00
49645;BME280;36494;50.730;-1.932;2023-02-13T11:00:17;102823.80;;;7.54;100.00
49645;BME280;36494;50.730;-1.932;2023-02-13T11:02:37;102821.59;;;7.71;100.00
49645;BME280;36494;50.730;-1.932;2023-02-13T11:05:13;102821.83;;;7.74;100.00
49645;BME280;36494;50.730;-1.932;2023-02-13T11:07:29;102821.05;;;7.70;100.00
49645;BME280;36494;50.730;-1.932;2023-02-13T11:09:57;102820.69;;;7.81;100.00
49645;BME280;36494;50.730;-1.932;2023-02-13T11:12:26;102816.77;;;7.88;100.00
49645;BME280;36494;50.730;-1.932;2023-02-13T11:14:53;102814.62;;;7.93;100.00
49645;BME280;36494;50.730;-1.932;2023-02-13T11:17:16;102813.76;;;7.94;100.00
49645;BME280;36494;50.730;-1.932;2023-02-13T11:19:36;102817.57;;;8.05;100.00
49645;BME280;36494;50.730;-1.932;2023-02-13T11:22:02;102822.56;;;8.05;100.00
49645;BME280;36494;50.730;-1.932;2023-02-13T11:24:26;102823.09;;;8.16;100.00
49645;BME280;36494;50.730;-1.932;2023-02-13T11:26:53;102824.19;;;8.14;100.00
49645;BME280;36494;50.730;-1.932;2023-02-13T11:29:20;102823.11;;;8.04;100.00
49645;BME280;36494;50.730;-1.932;2023-02-13T11:31:41;102821.59;;;8.10;100.00
49645;BME280;36494;50.730;-1.932;2023-02-13T11:36:33;102811.44;;;7.87;100.00
49645;BME280;36494;50.730;-1.932;2023-02-13T11:39:00;102810.37;;;7.86;100.00
49645;BME280;36494;50.730;-1.932;2023-02-13T11:41:24;102808.34;;;7.94;100.00
49645;BME280;36494;50.730;-1.932;2023-02-13T11:43:53;102805.34;;;7.93;100.00
49645;BME280;36494;50.730;-1.932;2023-02-13T11:46:18;102801.18;;;7.92;100.00
49645;BME280;36494;50.730;-1.932;2023-02-13T11:48:42;102798.13;;;7.99;100.00
49645;BME280;36494;50.730;-1.932;2023-02-13T11:51:06;102793.58;;;7.67;100.00
49645;BME280;36494;50.730;-1.932;2023-02-13T11:53:36;102792.02;;;7.89;100.00
49645;BME280;36494;50.730;-1.932;2023-02-13T11:56:04;102794.49;;;7.85;100.00
49645;BME280;36494;50.730;-1.932;2023-02-13T11:58:24;102796.47;;;7.96;100.00
49645;BME280;36494;50.730;-1.932;2023-02-13T12:00:48;102795.55;;;7.98;100.00
49645;BME280;36494;50.730;-1.932;2023-02-13T12:03:25;102795.07;;;8.06;100.00
49645;BME280;36494;50.730;-1.932;2023-02-13T12:05:40;102794.09;;;7.99;100.00
49645;BME280;36494;50.730;-1.932;2023-02-13T12:08:15;102793.63;;;7.93;100.00
49645;BME280;36494;50.730;-1.932;2023-02-13T12:10:31;102792.45;;;8.01;100.00
49645;BME280;36494;50.730;-1.932;2023-02-13T12:12:57;102790.09;;;7.95;100.00
49645;BME280;36494;50.730;-1.932;2023-02-13T12:15:24;102786.76;;;7.94;100.00
49645;BME280;36494;50.730;-1.932;2023-02-13T12:17:54;102781.76;;;8.02;100.00
49645;BME280;36494;50.730;-1.932;2023-02-13T12:20:14;102776.51;;;8.01;100.00
49645;BME280;36494;50.730;-1.932;2023-02-13T12:22:45;102778.95;;;8.12;100.00
49645;BME280;36494;50.730;-1.932;2023-02-13T12:27:35;102779.18;;;8.00;100.00
49645;BME280;36494;50.730;-1.932;2023-02-13T12:30:09;102777.41;;;7.96;100.00
49645;BME280;36494;50.730;-1.932;2023-02-13T12:32:20;102778.26;;;7.94;100.00
49645;BME280;36494;50.730;-1.932;2023-02-13T12:37:21;102766.30;;;8.29;100.00
49645;BME280;36494;50.730;-1.932;2023-02-13T12:39:39;102765.54;;;8.47;100.00